sensor_id;sensor_type;location;lat;lon;timestamp;P1;durP1;ratioP1;P2;durP2;ratioP2
69005;SDS011;56061;51.748;19.620;2023-08-24T00:00:21;8.80;;;4.00;;
69005;SDS011;56061;51.748;19.620;2023-08-24T00:02:48;6.40;;;3.60;;
69005;SDS011;56061;51.748;19.620;2023-08-24T00:05:14;7.30;;;4.00;;
69005;SDS011;56061;51.748;19.620;2023-08-24T00:07:41;7.50;;;4.20;;
69005;SDS011;56061;51.748;19.620;2023-08-24T00:10:08;7.50;;;4.40;;
69005;SDS011;56061;51.748;19.620;2023-08-24T00:12:34;7.40;;;3.90;;
69005;SDS011;56061;51.748;19.620;2023-08-24T00:15:02;8.20;;;3.80;;
69005;SDS011;56061;51.748;19.620;2023-08-24T00:17:29;7.50;;;3.80;;
69005;SDS011;56061;51.748;19.620;2023-08-24T00:19:55;8.30;;;4.30;;
69005;SDS011;56061;51.748;19.620;2023-08-24T00:22:21;8.20;;;4.00;;
69005;SDS011;56061;51.748;19.620;2023-08-24T00:24:48;7.90;;;3.70;;
69005;SDS011;56061;51.748;19.620;2023-08-24T00:27:14;7.50;;;3.60;;
69005;SDS011;56061;51.748;19.620;2023-08-24T00:29:41;6.70;;;3.50;;
69005;SDS011;56061;51.748;19.620;2023-08-24T00:32:07;6.60;;;3.80;;
69005;SDS011;56061;51.748;19.620;2023-08-24T00:34:34;7.60;;;3.90;;
69005;SDS011;56061;51.748;19.620;2023-08-24T00:37:01;9.80;;;4.50;;
69005;SDS011;56061;51.748;19.620;2023-08-24T00:39:27;8.20;;;4.30;;
69005;SDS011;56061;51.748;19.620;2023-08-24T00:41:54;6.60;;;3.80;;
69005;SDS011;56061;51.748;19.620;2023-08-24T00:44:21;9.30;;;4.40;;
69005;SDS011;56061;51.748;19.620;2023-08-24T00:46:48;7.70;;;4.10;;
69005;SDS011;56061;51.748;19.620;2023-08-24T00:49:14;8.10;;;4.20;;
69005;SDS011;56061;51.748;19.620;2023-08-24T00:51:41;10.00;;;4.40;;
69005;SDS011;56061;51.748;19.620;2023-08-24T00:54:08;8.10;;;4.00;;
69005;SDS011;56061;51.748;19.620;2023-08-24T00:56:34;12.50;;;7.10;;
69005;SDS011;56061;51.748;19.620;2023-08-24T00:59:01;10.20;;;5.60;;
69005;SDS011;56061;51.748;19.620;2023-08-24T01:01:27;9.40;;;4.40;;
69005;SDS011;56061;51.748;19.620;2023-08-24T01:03:54;7.00;;;4.30;;
69005;SDS011;56061;51.748;19.620;2023-08-24T01:06:20;9.40;;;4.40;;
69005;SDS011;56061;51.748;19.620;2023-08-24T01:08:47;11.10;;;4.70;;
69005;SDS011;56061;51.748;19.620;2023-08-24T01:16:34;9.50;;;4.60;;
69005;SDS011;56061;51.748;19.620;2023-08-24T01:19:27;9.40;;;4.30;;
69005;SDS011;56061;51.748;19.620;2023-08-24T01:22:01;7.60;;;4.40;;
69005;SDS011;56061;51.748;19.620;2023-08-24T01:24:45;8.20;;;4.20;;
69005;SDS011;56061;51.748;19.620;2023-08-24T01:27:14;8.80;;;4.80;;
69005;SDS011;56061;51.748;19.620;2023-08-24T01:29:41;8.00;;;4.30;;
69005;SDS011;56061;51.748;19.620;2023-08-24T01:32:11;10.60;;;5.60;;
69005;SDS011;56061;51.748;19.620;2023-08-24T01:34:40;10.30;;;4.90;;
69005;SDS011;56061;51.748;19.620;2023-08-24T01:37:07;12.90;;;7.50;;
69005;SDS011;56061;51.748;19.620;2023-08-24T01:39:46;9.50;;;5.30;;
69005;SDS011;56061;51.748;19.620;2023-08-24T01:42:21;12.20;;;5.70;;
69005;SDS011;56061;51.748;19.620;2023-08-24T01:44:56;21.90;;;5.90;;
69005;SDS011;56061;51.748;19.620;2023-08-24T01:47:27;12.80;;;5.40;;
69005;SDS011;56061;51.748;19.620;2023-08-24T01:49:55;10.30;;;5.20;;
69005;SDS011;56061;51.748;19.620;2023-08-24T01:52:22;9.30;;;4.90;;
69005;SDS011;56061;51.748;19.620;2023-08-24T01:54:50;12.80;;;5.00;;
69005;SDS011;56061;51.748;19.620;2023-08-24T01:57:17;10.40;;;4.50;;
69005;SDS011;56061;51.748;19.620;2023-08-24T01:59:43;11.90;;;4.70;;
69005;SDS011;56061;51.748;19.620;2023-08-24T02:02:10;12.30;;;6.00;;
69005;SDS011;56061;51.748;19.620;2023-08-24T02:04:36;13.10;;;7.10;;
69005;SDS011;56061;51.748;19.620;2023-08-24T02:07:03;23.80;;;12.10;;
69005;SDS011;56061;51.748;19.620;2023-08-24T02:09:29;13.30;;;6.80;;
69005;SDS011;56061;51.748;19.620;2023-08-24T02:11:57;12.90;;;6.00;;
69005;SDS011;56061;51.748;19.620;2023-08-24T02:14:24;10.90;;;5.60;;
69005;SDS011;56061;51.748;19.620;2023-08-24T02:16:50;11.30;;;5.10;;
69005;SDS011;56061;51.748;19.620;2023-08-24T02:19:17;10.60;;;5.60;;
69005;SDS011;56061;51.748;19.620;2023-08-24T02:21:43;11.40;;;5.30;;
69005;SDS011;56061;51.748;19.620;2023-08-24T02:24:10;11.30;;;5.40;;
69005;SDS011;56061;51.748;19.620;2023-08-24T02:26:36;8.90;;;5.20;;
69005;SDS011;56061;51.748;19.620;2023-08-24T02:29:02;11.00;;;5.50;;
69005;SDS011;56061;51.748;19.620;2023-08-24T02:31:30;10.00;;;4.90;;
69005;SDS011;56061;51.748;19.620;2023-08-24T02:33:56;9.40;;;4.90;;
69005;SDS011;56061;51.748;19.620;2023-08-24T02:36:22;10.20;;;5.30;;
69005;SDS011;56061;51.748;19.620;2023-08-24T02:38:49;11.40;;;5.20;;
69005;SDS011;56061;51.748;19.620;2023-08-24T02:41:15;9.90;;;4.40;;
69005;SDS011;56061;51.748;19.620;2023-08-24T02:43:42;9.10;;;4.20;;
69005;SDS011;56061;51.748;19.620;2023-08-24T02:46:12;10.10;;;4.40;;
69005;SDS011;56061;51.748;19.620;2023-08-24T02:48:38;7.90;;;4.60;;
69005;SDS011;56061;51.748;19.620;2023-08-24T02:51:08;7.40;;;4.20;;
69005;SDS011;56061;51.748;19.620;2023-08-24T02:53:34;7.90;;;4.20;;
69005;SDS011;56061;51.748;19.620;2023-08-24T02:56:01;10.40;;;5.90;;
69005;SDS011;56061;51.748;19.620;2023-08-24T02:58:28;8.00;;;4.40;;
69005;SDS011;56061;51.748;19.620;2023-08-24T03:00:55;8.70;;;4.20;;
69005;SDS011;56061;51.748;19.620;2023-08-24T03:03:23;11.10;;;4.40;;
69005;SDS011;56061;51.748;19.620;2023-08-24T03:05:56;10.20;;;4.70;;
69005;SDS011;56061;51.748;19.620;2023-08-24T03:08:25;7.60;;;4.40;;
69005;SDS011;56061;51.748;19.620;2023-08-24T03:10:51;8.30;;;4.60;;
69005;SDS011;56061;51.748;19.620;2023-08-24T03:13:18;8.10;;;4.40;;
69005;SDS011;56061;51.748;19.620;2023-08-24T03:15:45;7.10;;;3.90;;
69005;SDS011;56061;51.748;19.620;2023-08-24T03:18:12;9.30;;;4.50;;
69005;SDS011;56061;51.748;19.620;2023-08-24T03:20:40;8.00;;;4.10;;
69005;SDS011;56061;51.748;19.620;2023-08-24T03:23:06;8.90;;;3.80;;
69005;SDS011;56061;51.748;19.620;2023-08-24T03:25:38;7.10;;;3.70;;
69005;SDS011;56061;51.748;19.620;2023-08-24T03:28:07;7.30;;;3.90;;
69005;SDS011;56061;51.748;19.620;2023-08-24T03:30:36;6.30;;;3.40;;
69005;SDS011;56061;51.748;19.620;2023-08-24T03:33:04;8.10;;;3.70;;
69005;SDS011;56061;51.748;19.620;2023-08-24T03:35:32;6.50;;;4.00;;
69005;SDS011;56061;51.748;19.620;2023-08-24T03:37:59;7.40;;;4.10;;
69005;SDS011;56061;51.748;19.620;2023-08-24T03:40:25;7.20;;;3.80;;
69005;SDS011;56061;51.748;19.620;2023-08-24T03:42:52;7.60;;;4.50;;
69005;SDS011;56061;51.748;19.620;2023-08-24T03:45:20;8.40;;;4.10;;
69005;SDS011;56061;51.748;19.620;2023-08-24T03:47:47;7.00;;;4.00;;
69005;SDS011;56061;51.748;19.620;2023-08-24T03:50:15;8.40;;;3.80;;
69005;SDS011;56061;51.748;19.620;2023-08-24T03:52:43;10.70;;;3.90;;
69005;SDS011;56061;51.748;19.620;2023-08-24T03:55:09;8.50;;;3.70;;
69005;SDS011;56061;51.748;19.620;2023-08-24T03:57:35;9.30;;;3.60;;
69005;SDS011;56061;51.748;19.620;2023-08-24T04:00:05;9.00;;;4.00;;
69005;SDS011;56061;51.748;19.620;2023-08-24T04:02:38;8.50;;;3.90;;
69005;SDS011;56061;51.748;19.620;2023-08-24T04:05:05;8.10;;;3.80;;
69005;SDS011;56061;51.748;19.620;2023-08-24T04:07:31;7.80;;;3.60;;
69005;SDS011;56061;51.748;19.620;2023-08-24T04:09:59;8.30;;;3.60;;
69005;SDS011;56061;51.748;19.620;2023-08-24T04:12:25;9.70;;;3.80;;
69005;SDS011;56061;51.748;19.620;2023-08-24T04:14:52;11.80;;;5.10;;
69005;SDS011;56061;51.748;19.620;2023-08-24T04:17:18;7.50;;;3.90;;
69005;SDS011;56061;51.748;19.620;2023-08-24T04:19:45;9.00;;;3.80;;
69005;SDS011;56061;51.748;19.620;2023-08-24T04:22:11;8.30;;;4.20;;
69005;SDS011;56061;51.748;19.620;2023-08-24T04:24:38;8.50;;;3.60;;
69005;SDS011;56061;51.748;19.620;2023-08-24T04:27:04;7.50;;;3.90;;
69005;SDS011;56061;51.748;19.620;2023-08-24T04:29:31;9.40;;;3.60;;
69005;SDS011;56061;51.748;19.620;2023-08-24T04:31:58;11.10;;;4.00;;
69005;SDS011;56061;51.748;19.620;2023-08-24T04:34:24;7.70;;;3.90;;
69005;SDS011;56061;51.748;19.620;2023-08-24T04:36:51;7.80;;;4.40;;
69005;SDS011;56061;51.748;19.620;2023-08-24T04:39:17;13.60;;;5.80;;
69005;SDS011;56061;51.748;19.620;2023-08-24T04:41:46;14.70;;;6.60;;
69005;SDS011;56061;51.748;19.620;2023-08-24T04:44:13;13.00;;;5.90;;
69005;SDS011;56061;51.748;19.620;2023-08-24T04:46:40;16.90;;;8.60;;
69005;SDS011;56061;51.748;19.620;2023-08-24T04:49:07;16.90;;;7.90;;
69005;SDS011;56061;51.748;19.620;2023-08-24T04:51:33;13.70;;;7.50;;
69005;SDS011;56061;51.748;19.620;2023-08-24T04:54:00;15.40;;;8.10;;
69005;SDS011;56061;51.748;19.620;2023-08-24T04:56:26;15.30;;;6.10;;
69005;SDS011;56061;51.748;19.620;2023-08-24T04:58:54;13.30;;;6.20;;
69005;SDS011;56061;51.748;19.620;2023-08-24T05:01:23;14.20;;;6.70;;
69005;SDS011;56061;51.748;19.620;2023-08-24T05:03:53;12.50;;;5.50;;
69005;SDS011;56061;51.748;19.620;2023-08-24T05:06:20;10.40;;;5.20;;
69005;SDS011;56061;51.748;19.620;2023-08-24T05:08:47;11.20;;;5.00;;
69005;SDS011;56061;51.748;19.620;2023-08-24T05:11:17;11.40;;;5.50;;
69005;SDS011;56061;51.748;19.620;2023-08-24T05:13:45;11.30;;;5.00;;
69005;SDS011;56061;51.748;19.620;2023-08-24T05:16:13;11.80;;;4.90;;
69005;SDS011;56061;51.748;19.620;2023-08-24T05:18:40;11.10;;;5.00;;
69005;SDS011;56061;51.748;19.620;2023-08-24T05:21:06;9.10;;;4.30;;
69005;SDS011;56061;51.748;19.620;2023-08-24T05:23:34;11.20;;;4.80;;
69005;SDS011;56061;51.748;19.620;2023-08-24T05:26:02;13.10;;;4.60;;
69005;SDS011;56061;51.748;19.620;2023-08-24T05:28:30;12.00;;;4.20;;
69005;SDS011;56061;51.748;19.620;2023-08-24T05:30:58;9.60;;;4.10;;
69005;SDS011;56061;51.748;19.620;2023-08-24T05:33:26;10.20;;;4.00;;
69005;SDS011;56061;51.748;19.620;2023-08-24T05:35:53;12.20;;;5.10;;
69005;SDS011;56061;51.748;19.620;2023-08-24T05:38:19;15.20;;;5.40;;
69005;SDS011;56061;51.748;19.620;2023-08-24T05:40:47;11.80;;;4.80;;
69005;SDS011;56061;51.748;19.620;2023-08-24T05:43:14;11.90;;;5.30;;
69005;SDS011;56061;51.748;19.620;2023-08-24T05:45:41;14.40;;;5.00;;
69005;SDS011;56061;51.748;19.620;2023-08-24T05:48:10;9.80;;;4.60;;
69005;SDS011;56061;51.748;19.620;2023-08-24T05:50:45;16.70;;;6.10;;
69005;SDS011;56061;51.748;19.620;2023-08-24T05:53:13;13.90;;;4.70;;
69005;SDS011;56061;51.748;19.620;2023-08-24T05:55:40;8.50;;;3.50;;
69005;SDS011;56061;51.748;19.620;2023-08-24T05:58:07;9.10;;;3.40;;
69005;SDS011;56061;51.748;19.620;2023-08-24T06:00:34;8.80;;;4.10;;
69005;SDS011;56061;51.748;19.620;2023-08-24T06:03:01;10.00;;;4.50;;
69005;SDS011;56061;51.748;19.620;2023-08-24T06:05:30;8.40;;;4.10;;
69005;SDS011;56061;51.748;19.620;2023-08-24T06:07:56;9.50;;;4.20;;
69005;SDS011;56061;51.748;19.620;2023-08-24T06:10:23;10.80;;;4.20;;
69005;SDS011;56061;51.748;19.620;2023-08-24T06:12:50;10.50;;;3.90;;
69005;SDS011;56061;51.748;19.620;2023-08-24T06:15:16;10.30;;;4.30;;
69005;SDS011;56061;51.748;19.620;2023-08-24T06:17:45;8.50;;;4.30;;
69005;SDS011;56061;51.748;19.620;2023-08-24T06:20:14;9.70;;;3.50;;
69005;SDS011;56061;51.748;19.620;2023-08-24T06:22:41;10.20;;;3.60;;
69005;SDS011;56061;51.748;19.620;2023-08-24T06:25:08;9.50;;;4.00;;
69005;SDS011;56061;51.748;19.620;2023-08-24T06:27:35;6.20;;;3.40;;
69005;SDS011;56061;51.748;19.620;2023-08-24T06:30:03;9.10;;;3.30;;
69005;SDS011;56061;51.748;19.620;2023-08-24T06:32:29;7.80;;;3.00;;
69005;SDS011;56061;51.748;19.620;2023-08-24T06:34:56;7.20;;;3.10;;
69005;SDS011;56061;51.748;19.620;2023-08-24T06:37:23;10.40;;;3.60;;
69005;SDS011;56061;51.748;19.620;2023-08-24T06:39:49;9.10;;;3.20;;
69005;SDS011;56061;51.748;19.620;2023-08-24T06:42:15;8.90;;;3.40;;
69005;SDS011;56061;51.748;19.620;2023-08-24T06:44:42;8.10;;;3.70;;
69005;SDS011;56061;51.748;19.620;2023-08-24T06:47:08;8.60;;;3.00;;
69005;SDS011;56061;51.748;19.620;2023-08-24T06:49:35;9.50;;;3.00;;
69005;SDS011;56061;51.748;19.620;2023-08-24T06:52:02;5.60;;;2.70;;
69005;SDS011;56061;51.748;19.620;2023-08-24T06:54:29;7.60;;;2.70;;
69005;SDS011;56061;51.748;19.620;2023-08-24T06:56:56;5.40;;;2.30;;
69005;SDS011;56061;51.748;19.620;2023-08-24T06:59:22;8.60;;;3.60;;
69005;SDS011;56061;51.748;19.620;2023-08-24T07:01:48;7.50;;;3.20;;
69005;SDS011;56061;51.748;19.620;2023-08-24T07:04:15;6.40;;;2.70;;
69005;SDS011;56061;51.748;19.620;2023-08-24T07:06:41;7.90;;;2.80;;
69005;SDS011;56061;51.748;19.620;2023-08-24T07:09:09;7.70;;;2.80;;
69005;SDS011;56061;51.748;19.620;2023-08-24T07:11:36;6.00;;;2.50;;
69005;SDS011;56061;51.748;19.620;2023-08-24T07:14:02;7.30;;;2.90;;
69005;SDS011;56061;51.748;19.620;2023-08-24T07:16:29;6.20;;;2.70;;
69005;SDS011;56061;51.748;19.620;2023-08-24T07:18:55;6.60;;;3.10;;
69005;SDS011;56061;51.748;19.620;2023-08-24T07:21:22;5.70;;;2.70;;
69005;SDS011;56061;51.748;19.620;2023-08-24T07:23:48;9.10;;;3.00;;
69005;SDS011;56061;51.748;19.620;2023-08-24T07:26:14;5.80;;;2.60;;
69005;SDS011;56061;51.748;19.620;2023-08-24T07:28:41;7.60;;;2.80;;
69005;SDS011;56061;51.748;19.620;2023-08-24T07:31:11;7.60;;;3.40;;
69005;SDS011;56061;51.748;19.620;2023-08-24T07:33:40;5.70;;;3.00;;
69005;SDS011;56061;51.748;19.620;2023-08-24T07:36:07;6.00;;;2.50;;
69005;SDS011;56061;51.748;19.620;2023-08-24T07:38:34;6.10;;;2.50;;
69005;SDS011;56061;51.748;19.620;2023-08-24T07:41:00;6.80;;;2.90;;
69005;SDS011;56061;51.748;19.620;2023-08-24T07:43:27;6.90;;;3.00;;
69005;SDS011;56061;51.748;19.620;2023-08-24T07:45:53;7.80;;;2.70;;
69005;SDS011;56061;51.748;19.620;2023-08-24T07:51:26;7.70;;;3.00;;
69005;SDS011;56061;51.748;19.620;2023-08-24T07:53:54;5.50;;;2.40;;
69005;SDS011;56061;51.748;19.620;2023-08-24T07:56:35;6.00;;;2.50;;
69005;SDS011;56061;51.748;19.620;2023-08-24T07:59:02;6.80;;;2.60;;
69005;SDS011;56061;51.748;19.620;2023-08-24T08:01:29;5.90;;;2.70;;
69005;SDS011;56061;51.748;19.620;2023-08-24T08:03:56;5.50;;;2.60;;
69005;SDS011;56061;51.748;19.620;2023-08-24T08:09:05;5.50;;;2.60;;
69005;SDS011;56061;51.748;19.620;2023-08-24T08:11:33;6.60;;;2.80;;
69005;SDS011;56061;51.748;19.620;2023-08-24T08:14:01;5.60;;;2.90;;
69005;SDS011;56061;51.748;19.620;2023-08-24T08:19:03;5.60;;;2.80;;
69005;SDS011;56061;51.748;19.620;2023-08-24T08:21:30;5.20;;;2.50;;
69005;SDS011;56061;51.748;19.620;2023-08-24T08:23:56;6.00;;;3.20;;
69005;SDS011;56061;51.748;19.620;2023-08-24T08:26:24;6.10;;;2.70;;
69005;SDS011;56061;51.748;19.620;2023-08-24T08:28:59;6.60;;;2.50;;
69005;SDS011;56061;51.748;19.620;2023-08-24T08:31:36;5.50;;;2.70;;
69005;SDS011;56061;51.748;19.620;2023-08-24T08:34:03;6.00;;;2.70;;
69005;SDS011;56061;51.748;19.620;2023-08-24T08:36:32;7.10;;;3.10;;
69005;SDS011;56061;51.748;19.620;2023-08-24T08:39:03;7.30;;;3.00;;
69005;SDS011;56061;51.748;19.620;2023-08-24T08:46:49;6.40;;;2.90;;
69005;SDS011;56061;51.748;19.620;2023-08-24T08:49:30;4.50;;;2.70;;
69005;SDS011;56061;51.748;19.620;2023-08-24T08:51:56;4.50;;;2.60;;
69005;SDS011;56061;51.748;19.620;2023-08-24T08:54:23;5.60;;;2.40;;
69005;SDS011;56061;51.748;19.620;2023-08-24T08:56:50;7.10;;;3.50;;
69005;SDS011;56061;51.748;19.620;2023-08-24T08:59:21;5.60;;;2.80;;
69005;SDS011;56061;51.748;19.620;2023-08-24T09:02:03;5.60;;;2.90;;
69005;SDS011;56061;51.748;19.620;2023-08-24T09:06:59;7.10;;;2.70;;
69005;SDS011;56061;51.748;19.620;2023-08-24T09:12:05;6.60;;;2.60;;
69005;SDS011;56061;51.748;19.620;2023-08-24T09:14:33;5.30;;;2.80;;
69005;SDS011;56061;51.748;19.620;2023-08-24T09:17:00;5.70;;;2.50;;
69005;SDS011;56061;51.748;19.620;2023-08-24T09:22:22;6.00;;;3.20;;
69005;SDS011;56061;51.748;19.620;2023-08-24T09:24:49;7.30;;;2.90;;
69005;SDS011;56061;51.748;19.620;2023-08-24T09:27:21;4.70;;;2.50;;
69005;SDS011;56061;51.748;19.620;2023-08-24T09:29:52;6.50;;;2.90;;
69005;SDS011;56061;51.748;19.620;2023-08-24T09:32:28;5.20;;;2.70;;
69005;SDS011;56061;51.748;19.620;2023-08-24T09:34:56;3.90;;;2.10;;
69005;SDS011;56061;51.748;19.620;2023-08-24T09:37:32;6.40;;;2.40;;
69005;SDS011;56061;51.748;19.620;2023-08-24T09:40:25;4.20;;;2.30;;
69005;SDS011;56061;51.748;19.620;2023-08-24T09:42:54;6.10;;;2.30;;
69005;SDS011;56061;51.748;19.620;2023-08-24T09:45:21;5.00;;;2.30;;
69005;SDS011;56061;51.748;19.620;2023-08-24T09:47:53;5.60;;;2.30;;
69005;SDS011;56061;51.748;19.620;2023-08-24T09:50:29;4.80;;;2.30;;
69005;SDS011;56061;51.748;19.620;2023-08-24T09:52:57;3.30;;;2.10;;
69005;SDS011;56061;51.748;19.620;2023-08-24T09:55:29;4.50;;;2.50;;
69005;SDS011;56061;51.748;19.620;2023-08-24T09:58:01;4.50;;;2.60;;
69005;SDS011;56061;51.748;19.620;2023-08-24T10:00:35;4.70;;;2.30;;
69005;SDS011;56061;51.748;19.620;2023-08-24T10:03:04;5.80;;;2.30;;
69005;SDS011;56061;51.748;19.620;2023-08-24T10:08:29;4.40;;;2.00;;
69005;SDS011;56061;51.748;19.620;2023-08-24T10:10:59;4.60;;;2.20;;
69005;SDS011;56061;51.748;19.620;2023-08-24T10:15:59;5.70;;;2.40;;
69005;SDS011;56061;51.748;19.620;2023-08-24T10:18:27;5.60;;;2.60;;
69005;SDS011;56061;51.748;19.620;2023-08-24T10:20:56;5.40;;;2.60;;
69005;SDS011;56061;51.748;19.620;2023-08-24T10:23:24;4.40;;;2.30;;
69005;SDS011;56061;51.748;19.620;2023-08-24T10:25:53;6.00;;;2.50;;
69005;SDS011;56061;51.748;19.620;2023-08-24T10:28:23;4.10;;;2.30;;
69005;SDS011;56061;51.748;19.620;2023-08-24T10:30:59;5.00;;;2.40;;
69005;SDS011;56061;51.748;19.620;2023-08-24T10:33:27;5.90;;;2.40;;
69005;SDS011;56061;51.748;19.620;2023-08-24T10:35:56;6.20;;;2.30;;
69005;SDS011;56061;51.748;19.620;2023-08-24T10:41:03;5.40;;;2.50;;
69005;SDS011;56061;51.748;19.620;2023-08-24T10:46:00;4.60;;;2.40;;
69005;SDS011;56061;51.748;19.620;2023-08-24T10:48:31;6.30;;;2.90;;
69005;SDS011;56061;51.748;19.620;2023-08-24T10:51:24;4.60;;;2.50;;
69005;SDS011;56061;51.748;19.620;2023-08-24T10:54:00;4.00;;;2.50;;
69005;SDS011;56061;51.748;19.620;2023-08-24T10:59:19;5.80;;;2.70;;
69005;SDS011;56061;51.748;19.620;2023-08-24T11:07:23;4.60;;;2.70;;
69005;SDS011;56061;51.748;19.620;2023-08-24T11:09:50;4.80;;;2.70;;
69005;SDS011;56061;51.748;19.620;2023-08-24T11:12:16;4.70;;;2.60;;
69005;SDS011;56061;51.748;19.620;2023-08-24T11:14:51;4.20;;;2.50;;
69005;SDS011;56061;51.748;19.620;2023-08-24T11:17:29;5.10;;;2.70;;
69005;SDS011;56061;51.748;19.620;2023-08-24T11:20:00;4.70;;;2.60;;
69005;SDS011;56061;51.748;19.620;2023-08-24T11:22:31;6.70;;;2.80;;
69005;SDS011;56061;51.748;19.620;2023-08-24T11:25:22;5.50;;;2.50;;
69005;SDS011;56061;51.748;19.620;2023-08-24T11:27:50;4.80;;;2.40;;
69005;SDS011;56061;51.748;19.620;2023-08-24T11:30:16;4.60;;;2.40;;
69005;SDS011;56061;51.748;19.620;2023-08-24T11:35:18;4.90;;;2.50;;
69005;SDS011;56061;51.748;19.620;2023-08-24T11:37:53;7.20;;;2.40;;
69005;SDS011;56061;51.748;19.620;2023-08-24T11:40:27;5.90;;;2.40;;
69005;SDS011;56061;51.748;19.620;2023-08-24T11:42:57;6.70;;;2.90;;
69005;SDS011;56061;51.748;19.620;2023-08-24T11:47:59;6.40;;;2.90;;
69005;SDS011;56061;51.748;19.620;2023-08-24T11:53:16;5.70;;;2.90;;
69005;SDS011;56061;51.748;19.620;2023-08-24T11:55:43;5.30;;;2.90;;
69005;SDS011;56061;51.748;19.620;2023-08-24T11:58:29;4.70;;;2.70;;
69005;SDS011;56061;51.748;19.620;2023-08-24T12:01:11;4.10;;;2.50;;
69005;SDS011;56061;51.748;19.620;2023-08-24T12:03:39;6.00;;;2.80;;
69005;SDS011;56061;51.748;19.620;2023-08-24T12:06:13;4.50;;;2.60;;
69005;SDS011;56061;51.748;19.620;2023-08-24T12:08:59;6.20;;;2.40;;
69005;SDS011;56061;51.748;19.620;2023-08-24T12:13:58;4.50;;;2.30;;
69005;SDS011;56061;51.748;19.620;2023-08-24T12:19:00;7.20;;;3.00;;
69005;SDS011;56061;51.748;19.620;2023-08-24T12:21:30;6.90;;;2.60;;
69005;SDS011;56061;51.748;19.620;2023-08-24T12:24:04;6.40;;;2.90;;
69005;SDS011;56061;51.748;19.620;2023-08-24T12:26:39;4.90;;;2.80;;
69005;SDS011;56061;51.748;19.620;2023-08-24T12:29:08;6.00;;;2.90;;
69005;SDS011;56061;51.748;19.620;2023-08-24T12:31:36;7.70;;;2.90;;
69005;SDS011;56061;51.748;19.620;2023-08-24T12:34:04;5.50;;;2.80;;
69005;SDS011;56061;51.748;19.620;2023-08-24T12:36:33;5.70;;;3.00;;
69005;SDS011;56061;51.748;19.620;2023-08-24T12:39:13;6.60;;;3.00;;
69005;SDS011;56061;51.748;19.620;2023-08-24T12:41:41;5.00;;;2.80;;
69005;SDS011;56061;51.748;19.620;2023-08-24T12:44:08;4.30;;;2.60;;
69005;SDS011;56061;51.748;19.620;2023-08-24T12:46:38;4.70;;;2.70;;
69005;SDS011;56061;51.748;19.620;2023-08-24T12:49:07;4.40;;;2.80;;
69005;SDS011;56061;51.748;19.620;2023-08-24T12:51:47;6.30;;;3.00;;
69005;SDS011;56061;51.748;19.620;2023-08-24T12:54:14;6.50;;;3.30;;
69005;SDS011;56061;51.748;19.620;2023-08-24T12:56:42;4.70;;;2.90;;
69005;SDS011;56061;51.748;19.620;2023-08-24T12:59:08;5.40;;;2.90;;
69005;SDS011;56061;51.748;19.620;2023-08-24T13:01:53;4.90;;;2.70;;
69005;SDS011;56061;51.748;19.620;2023-08-24T13:04:19;5.40;;;2.70;;
69005;SDS011;56061;51.748;19.620;2023-08-24T13:06:52;6.20;;;2.40;;
69005;SDS011;56061;51.748;19.620;2023-08-24T13:09:18;4.70;;;2.80;;
69005;SDS011;56061;51.748;19.620;2023-08-24T13:12:05;5.80;;;2.60;;
69005;SDS011;56061;51.748;19.620;2023-08-24T13:14:32;6.60;;;2.80;;
69005;SDS011;56061;51.748;19.620;2023-08-24T13:16:59;6.30;;;2.70;;
69005;SDS011;56061;51.748;19.620;2023-08-24T13:19:26;5.00;;;3.10;;
69005;SDS011;56061;51.748;19.620;2023-08-24T13:22:00;5.00;;;2.50;;
69005;SDS011;56061;51.748;19.620;2023-08-24T13:24:26;7.50;;;2.90;;
69005;SDS011;56061;51.748;19.620;2023-08-24T13:26:59;5.80;;;3.10;;
69005;SDS011;56061;51.748;19.620;2023-08-24T13:29:26;5.70;;;2.60;;
69005;SDS011;56061;51.748;19.620;2023-08-24T13:32:11;5.50;;;2.80;;
69005;SDS011;56061;51.748;19.620;2023-08-24T13:34:37;5.80;;;2.90;;
69005;SDS011;56061;51.748;19.620;2023-08-24T13:37:04;5.00;;;3.00;;
69005;SDS011;56061;51.748;19.620;2023-08-24T13:39:31;5.40;;;2.80;;
69005;SDS011;56061;51.748;19.620;2023-08-24T13:42:17;8.50;;;3.30;;
69005;SDS011;56061;51.748;19.620;2023-08-24T13:44:45;4.20;;;2.80;;
69005;SDS011;56061;51.748;19.620;2023-08-24T13:47:13;5.20;;;2.60;;
69005;SDS011;56061;51.748;19.620;2023-08-24T13:49:39;6.20;;;2.60;;
69005;SDS011;56061;51.748;19.620;2023-08-24T13:52:19;5.80;;;2.90;;
69005;SDS011;56061;51.748;19.620;2023-08-24T13:54:54;5.00;;;2.60;;
69005;SDS011;56061;51.748;19.620;2023-08-24T13:57:36;4.70;;;2.40;;
69005;SDS011;56061;51.748;19.620;2023-08-24T14:00:20;5.10;;;2.60;;
69005;SDS011;56061;51.748;19.620;2023-08-24T14:02:49;5.20;;;2.70;;
69005;SDS011;56061;51.748;19.620;2023-08-24T14:05:16;6.50;;;2.80;;
69005;SDS011;56061;51.748;19.620;2023-08-24T14:07:43;5.40;;;2.70;;
69005;SDS011;56061;51.748;19.620;2023-08-24T14:10:27;5.40;;;2.70;;
69005;SDS011;56061;51.748;19.620;2023-08-24T14:12:55;4.80;;;2.50;;
69005;SDS011;56061;51.748;19.620;2023-08-24T14:15:25;5.70;;;2.60;;
69005;SDS011;56061;51.748;19.620;2023-08-24T14:17:51;5.00;;;2.70;;
69005;SDS011;56061;51.748;19.620;2023-08-24T14:20:22;5.10;;;2.60;;
69005;SDS011;56061;51.748;19.620;2023-08-24T14:25:30;5.30;;;2.30;;
69005;SDS011;56061;51.748;19.620;2023-08-24T14:27:57;5.90;;;2.50;;
69005;SDS011;56061;51.748;19.620;2023-08-24T14:33:32;5.10;;;2.30;;
69005;SDS011;56061;51.748;19.620;2023-08-24T14:36:00;7.40;;;2.60;;
69005;SDS011;56061;51.748;19.620;2023-08-24T14:41:27;5.40;;;2.50;;
69005;SDS011;56061;51.748;19.620;2023-08-24T14:44:02;4.60;;;2.50;;
69005;SDS011;56061;51.748;19.620;2023-08-24T14:46:29;5.30;;;2.50;;
69005;SDS011;56061;51.748;19.620;2023-08-24T14:48:59;5.70;;;2.30;;
69005;SDS011;56061;51.748;19.620;2023-08-24T14:51:26;4.80;;;2.30;;
69005;SDS011;56061;51.748;19.620;2023-08-24T14:53:53;4.80;;;2.30;;
69005;SDS011;56061;51.748;19.620;2023-08-24T14:59:27;5.30;;;2.70;;
69005;SDS011;56061;51.748;19.620;2023-08-24T15:01:53;5.30;;;2.20;;
69005;SDS011;56061;51.748;19.620;2023-08-24T15:04:32;4.90;;;2.30;;
69005;SDS011;56061;51.748;19.620;2023-08-24T15:06:58;6.50;;;2.50;;
69005;SDS011;56061;51.748;19.620;2023-08-24T15:09:27;5.30;;;2.50;;
69005;SDS011;56061;51.748;19.620;2023-08-24T15:11:53;5.50;;;2.40;;
69005;SDS011;56061;51.748;19.620;2023-08-24T15:14:20;5.20;;;2.50;;
69005;SDS011;56061;51.748;19.620;2023-08-24T15:17:00;8.10;;;2.90;;
69005;SDS011;56061;51.748;19.620;2023-08-24T15:19:26;5.00;;;2.50;;
69005;SDS011;56061;51.748;19.620;2023-08-24T15:21:53;4.20;;;2.20;;
69005;SDS011;56061;51.748;19.620;2023-08-24T15:24:19;4.20;;;2.20;;
69005;SDS011;56061;51.748;19.620;2023-08-24T15:27:11;5.60;;;2.40;;
69005;SDS011;56061;51.748;19.620;2023-08-24T15:29:38;5.70;;;2.20;;
69005;SDS011;56061;51.748;19.620;2023-08-24T15:32:07;5.30;;;2.70;;
69005;SDS011;56061;51.748;19.620;2023-08-24T15:34:33;5.30;;;2.60;;
69005;SDS011;56061;51.748;19.620;2023-08-24T15:37:20;5.40;;;2.50;;
69005;SDS011;56061;51.748;19.620;2023-08-24T15:39:47;5.00;;;2.30;;
69005;SDS011;56061;51.748;19.620;2023-08-24T15:42:27;5.40;;;2.30;;
69005;SDS011;56061;51.748;19.620;2023-08-24T15:45:19;5.20;;;2.20;;
69005;SDS011;56061;51.748;19.620;2023-08-24T15:47:46;5.10;;;2.10;;
69005;SDS011;56061;51.748;19.620;2023-08-24T15:50:12;5.10;;;2.40;;
69005;SDS011;56061;51.748;19.620;2023-08-24T15:52:44;6.70;;;2.10;;